sensor_id;sensor_type;location;lat;lon;timestamp;temperature;humidity
4366;DHT22;2196;47.422;9.656;2024-03-29T00:01:55;5.40;99.90
4366;DHT22;2196;47.422;9.656;2024-03-29T00:04:21;5.50;99.90
4366;DHT22;2196;47.422;9.656;2024-03-29T00:06:47;5.40;99.90
4366;DHT22;2196;47.422;9.656;2024-03-29T00:09:13;5.40;99.90
4366;DHT22;2196;47.422;9.656;2024-03-29T00:11:39;5.60;99.90
4366;DHT22;2196;47.422;9.656;2024-03-29T00:14:05;5.50;99.90
4366;DHT22;2196;47.422;9.656;2024-03-29T00:16:31;5.50;99.90
4366;DHT22;2196;47.422;9.656;2024-03-29T00:18:58;5.50;99.90
4366;DHT22;2196;47.422;9.656;2024-03-29T00:21:24;5.40;99.90
4366;DHT22;2196;47.422;9.656;2024-03-29T00:23:50;5.40;99.90
4366;DHT22;2196;47.422;9.656;2024-03-29T00:26:17;5.30;99.90
4366;DHT22;2196;47.422;9.656;2024-03-29T00:28:43;5.40;99.90
4366;DHT22;2196;47.422;9.656;2024-03-29T00:31:09;5.30;99.90
4366;DHT22;2196;47.422;9.656;2024-03-29T00:33:35;5.10;99.90
4366;DHT22;2196;47.422;9.656;2024-03-29T00:36:03;5.10;99.90
4366;DHT22;2196;47.422;9.656;2024-03-29T00:38:29;5.00;99.90
4366;DHT22;2196;47.422;9.656;2024-03-29T00:40:55;4.90;99.90
4366;DHT22;2196;47.422;9.656;2024-03-29T00:43:21;4.80;99.90
4366;DHT22;2196;47.422;9.656;2024-03-29T00:45:47;4.80;99.90
4366;DHT22;2196;47.422;9.656;2024-03-29T00:48:13;4.70;99.90
4366;DHT22;2196;47.422;9.656;2024-03-29T00:50:39;4.70;99.90
4366;DHT22;2196;47.422;9.656;2024-03-29T00:53:07;4.80;99.90
4366;DHT22;2196;47.422;9.656;2024-03-29T00:55:33;4.60;99.90
4366;DHT22;2196;47.422;9.656;2024-03-29T00:57:59;4.80;99.90
4366;DHT22;2196;47.422;9.656;2024-03-29T01:00:25;4.60;99.90
4366;DHT22;2196;47.422;9.656;2024-03-29T01:02:51;4.70;99.90
4366;DHT22;2196;47.422;9.656;2024-03-29T01:05:17;4.60;99.90
4366;DHT22;2196;47.422;9.656;2024-03-29T01:07:43;4.40;99.90
4366;DHT22;2196;47.422;9.656;2024-03-29T01:10:11;4.50;99.90
4366;DHT22;2196;47.422;9.656;2024-03-29T01:12:37;4.50;99.90
4366;DHT22;2196;47.422;9.656;2024-03-29T01:15:04;4.50;99.90
4366;DHT22;2196;47.422;9.656;2024-03-29T01:17:30;4.60;99.90
4366;DHT22;2196;47.422;9.656;2024-03-29T01:19:56;4.50;99.90
4366;DHT22;2196;47.422;9.656;2024-03-29T01:22:22;4.50;99.90
4366;DHT22;2196;47.422;9.656;2024-03-29T01:24:48;4.60;99.90
4366;DHT22;2196;47.422;9.656;2024-03-29T01:27:16;4.60;99.90
4366;DHT22;2196;47.422;9.656;2024-03-29T01:29:42;4.60;99.90
4366;DHT22;2196;47.422;9.656;2024-03-29T01:32:08;4.60;99.90
4366;DHT22;2196;47.422;9.656;2024-03-29T01:34:34;4.80;99.90
4366;DHT22;2196;47.422;9.656;2024-03-29T01:37:00;4.70;99.90
4366;DHT22;2196;47.422;9.656;2024-03-29T01:39:26;5.00;99.90
4366;DHT22;2196;47.422;9.656;2024-03-29T01:41:52;5.10;99.90
4366;DHT22;2196;47.422;9.656;2024-03-29T01:44:20;5.20;99.90
4366;DHT22;2196;47.422;9.656;2024-03-29T01:46:47;5.40;99.90
4366;DHT22;2196;47.422;9.656;2024-03-29T01:49:14;5.60;99.90
4366;DHT22;2196;47.422;9.656;2024-03-29T01:51:42;5.80;99.90
4366;DHT22;2196;47.422;9.656;2024-03-29T01:54:10;6.10;99.90
4366;DHT22;2196;47.422;9.656;2024-03-29T01:56:39;6.30;99.90
4366;DHT22;2196;47.422;9.656;2024-03-29T01:59:12;6.30;99.90
4366;DHT22;2196;47.422;9.656;2024-03-29T02:01:41;6.20;99.90
4366;DHT22;2196;47.422;9.656;2024-03-29T02:04:09;6.40;99.90
4366;DHT22;2196;47.422;9.656;2024-03-29T02:06:37;6.90;99.90
4366;DHT22;2196;47.422;9.656;2024-03-29T02:09:04;7.60;99.90
4366;DHT22;2196;47.422;9.656;2024-03-29T02:11:31;8.30;99.90
4366;DHT22;2196;47.422;9.656;2024-03-29T02:13:58;8.70;99.90
4366;DHT22;2196;47.422;9.656;2024-03-29T02:16:24;9.10;99.90
4366;DHT22;2196;47.422;9.656;2024-03-29T02:18:52;9.30;99.90
4366;DHT22;2196;47.422;9.656;2024-03-29T02:21:19;9.40;99.90
4366;DHT22;2196;47.422;9.656;2024-03-29T02:23:47;9.30;99.90
4366;DHT22;2196;47.422;9.656;2024-03-29T02:26:18;9.10;99.90
4366;DHT22;2196;47.422;9.656;2024-03-29T02:28:45;8.90;99.90
4366;DHT22;2196;47.422;9.656;2024-03-29T02:31:12;8.80;99.90
4366;DHT22;2196;47.422;9.656;2024-03-29T02:33:38;8.80;99.90
4366;DHT22;2196;47.422;9.656;2024-03-29T02:36:06;8.80;99.90
4366;DHT22;2196;47.422;9.656;2024-03-29T02:38:33;8.80;99.90
4366;DHT22;2196;47.422;9.656;2024-03-29T02:41:00;8.80;99.90
4366;DHT22;2196;47.422;9.656;2024-03-29T02:43:28;8.60;99.90
4366;DHT22;2196;47.422;9.656;2024-03-29T02:45:55;8.40;99.90
4366;DHT22;2196;47.422;9.656;2024-03-29T02:48:21;8.20;99.90
4366;DHT22;2196;47.422;9.656;2024-03-29T02:50:48;8.00;99.90
4366;DHT22;2196;47.422;9.656;2024-03-29T02:53:14;7.80;99.90
4366;DHT22;2196;47.422;9.656;2024-03-29T02:55:41;8.00;99.90
4366;DHT22;2196;47.422;9.656;2024-03-29T02:58:07;7.90;99.90
4366;DHT22;2196;47.422;9.656;2024-03-29T03:00:35;7.90;99.90
4366;DHT22;2196;47.422;9.656;2024-03-29T03:03:02;7.90;99.90
4366;DHT22;2196;47.422;9.656;2024-03-29T03:05:29;7.90;99.90
4366;DHT22;2196;47.422;9.656;2024-03-29T03:07:55;8.20;99.90
4366;DHT22;2196;47.422;9.656;2024-03-29T03:10:45;8.60;99.90
4366;DHT22;2196;47.422;9.656;2024-03-29T03:13:27;8.90;99.90
4366;DHT22;2196;47.422;9.656;2024-03-29T03:15:56;9.00;99.90
4366;DHT22;2196;47.422;9.656;2024-03-29T03:18:23;9.20;99.90
4366;DHT22;2196;47.422;9.656;2024-03-29T03:20:53;9.40;99.90
4366;DHT22;2196;47.422;9.656;2024-03-29T03:23:19;9.40;99.90
4366;DHT22;2196;47.422;9.656;2024-03-29T03:25:53;9.40;99.90
4366;DHT22;2196;47.422;9.656;2024-03-29T03:28:19;9.50;99.90
4366;DHT22;2196;47.422;9.656;2024-03-29T03:30:46;9.90;99.90
4366;DHT22;2196;47.422;9.656;2024-03-29T03:33:13;10.00;99.90
4366;DHT22;2196;47.422;9.656;2024-03-29T03:35:41;10.30;99.90
4366;DHT22;2196;47.422;9.656;2024-03-29T03:38:07;10.50;99.90
4366;DHT22;2196;47.422;9.656;2024-03-29T03:40:35;10.60;99.90
4366;DHT22;2196;47.422;9.656;2024-03-29T03:43:01;10.90;99.90
4366;DHT22;2196;47.422;9.656;2024-03-29T03:45:28;10.90;99.90
4366;DHT22;2196;47.422;9.656;2024-03-29T03:47:56;10.90;99.90
4366;DHT22;2196;47.422;9.656;2024-03-29T03:50:24;11.00;99.90
4366;DHT22;2196;47.422;9.656;2024-03-29T03:52:53;11.10;99.90
4366;DHT22;2196;47.422;9.656;2024-03-29T03:55:20;11.20;99.90
4366;DHT22;2196;47.422;9.656;2024-03-29T03:57:50;11.30;99.90
4366;DHT22;2196;47.422;9.656;2024-03-29T04:00:18;11.40;99.90
4366;DHT22;2196;47.422;9.656;2024-03-29T04:02:47;11.60;99.90
4366;DHT22;2196;47.422;9.656;2024-03-29T04:05:15;11.80;99.90
4366;DHT22;2196;47.422;9.656;2024-03-29T04:07:42;11.80;99.90
4366;DHT22;2196;47.422;9.656;2024-03-29T04:10:09;11.80;99.90
4366;DHT22;2196;47.422;9.656;2024-03-29T04:12:35;12.00;99.90
4366;DHT22;2196;47.422;9.656;2024-03-29T04:15:03;12.10;99.90
4366;DHT22;2196;47.422;9.656;2024-03-29T04:17:29;12.10;99.90
4366;DHT22;2196;47.422;9.656;2024-03-29T04:19:57;12.20;99.90
4366;DHT22;2196;47.422;9.656;2024-03-29T04:22:23;12.20;99.90
4366;DHT22;2196;47.422;9.656;2024-03-29T04:24:51;12.20;99.90
4366;DHT22;2196;47.422;9.656;2024-03-29T04:27:17;12.00;99.90
4366;DHT22;2196;47.422;9.656;2024-03-29T04:29:44;12.20;99.90
4366;DHT22;2196;47.422;9.656;2024-03-29T04:32:10;12.30;99.90
4366;DHT22;2196;47.422;9.656;2024-03-29T04:34:37;12.30;99.90
4366;DHT22;2196;47.422;9.656;2024-03-29T04:37:03;12.20;99.90
4366;DHT22;2196;47.422;9.656;2024-03-29T04:39:30;12.30;99.90
4366;DHT22;2196;47.422;9.656;2024-03-29T04:41:58;12.30;99.90
4366;DHT22;2196;47.422;9.656;2024-03-29T04:44:27;12.40;99.90
4366;DHT22;2196;47.422;9.656;2024-03-29T04:46:54;12.50;99.90
4366;DHT22;2196;47.422;9.656;2024-03-29T04:49:22;12.60;99.90
4366;DHT22;2196;47.422;9.656;2024-03-29T04:51:56;12.60;99.90
4366;DHT22;2196;47.422;9.656;2024-03-29T04:54:23;12.80;99.90
4366;DHT22;2196;47.422;9.656;2024-03-29T04:56:50;12.90;99.90
4366;DHT22;2196;47.422;9.656;2024-03-29T04:59:18;12.90;99.90
4366;DHT22;2196;47.422;9.656;2024-03-29T05:01:46;12.90;99.90
4366;DHT22;2196;47.422;9.656;2024-03-29T05:04:15;12.90;99.90
4366;DHT22;2196;47.422;9.656;2024-03-29T05:06:44;12.80;99.90
4366;DHT22;2196;47.422;9.656;2024-03-29T05:09:11;12.70;99.90
4366;DHT22;2196;47.422;9.656;2024-03-29T05:11:38;12.70;99.90
4366;DHT22;2196;47.422;9.656;2024-03-29T05:14:05;12.70;99.90
4366;DHT22;2196;47.422;9.656;2024-03-29T05:16:33;12.60;99.90
4366;DHT22;2196;47.422;9.656;2024-03-29T05:19:00;12.70;99.90
4366;DHT22;2196;47.422;9.656;2024-03-29T05:21:27;12.70;99.90
4366;DHT22;2196;47.422;9.656;2024-03-29T05:23:54;12.70;99.90
4366;DHT22;2196;47.422;9.656;2024-03-29T05:26:21;12.70;99.90
4366;DHT22;2196;47.422;9.656;2024-03-29T05:28:48;12.80;99.90
4366;DHT22;2196;47.422;9.656;2024-03-29T05:31:15;12.80;99.90
4366;DHT22;2196;47.422;9.656;2024-03-29T05:33:43;12.80;99.90
4366;DHT22;2196;47.422;9.656;2024-03-29T05:36:11;12.80;99.90
4366;DHT22;2196;47.422;9.656;2024-03-29T05:38:39;12.80;99.90
4366;DHT22;2196;47.422;9.656;2024-03-29T05:41:06;13.00;99.90
4366;DHT22;2196;47.422;9.656;2024-03-29T05:43:33;13.10;99.90
4366;DHT22;2196;47.422;9.656;2024-03-29T05:46:00;13.20;99.90
4366;DHT22;2196;47.422;9.656;2024-03-29T05:48:27;13.30;99.90
4366;DHT22;2196;47.422;9.656;2024-03-29T05:50:55;13.30;99.90
4366;DHT22;2196;47.422;9.656;2024-03-29T05:53:22;13.40;99.90
4366;DHT22;2196;47.422;9.656;2024-03-29T05:55:49;13.50;99.90
4366;DHT22;2196;47.422;9.656;2024-03-29T05:58:16;13.50;99.90
4366;DHT22;2196;47.422;9.656;2024-03-29T06:00:46;13.50;99.90
4366;DHT22;2196;47.422;9.656;2024-03-29T06:03:13;13.70;99.90
4366;DHT22;2196;47.422;9.656;2024-03-29T06:05:41;13.70;99.90
4366;DHT22;2196;47.422;9.656;2024-03-29T06:08:10;13.70;99.90
4366;DHT22;2196;47.422;9.656;2024-03-29T06:10:37;13.80;99.90
4366;DHT22;2196;47.422;9.656;2024-03-29T06:13:04;13.70;99.90
4366;DHT22;2196;47.422;9.656;2024-03-29T06:15:35;13.70;99.90
4366;DHT22;2196;47.422;9.656;2024-03-29T06:18:20;13.80;99.90
4366;DHT22;2196;47.422;9.656;2024-03-29T06:20:47;13.80;99.90
4366;DHT22;2196;47.422;9.656;2024-03-29T06:23:16;13.90;99.90
4366;DHT22;2196;47.422;9.656;2024-03-29T06:25:44;14.00;99.90
4366;DHT22;2196;47.422;9.656;2024-03-29T06:28:11;14.10;99.90
4366;DHT22;2196;47.422;9.656;2024-03-29T06:30:38;14.40;99.90
4366;DHT22;2196;47.422;9.656;2024-03-29T06:33:07;14.50;99.90
4366;DHT22;2196;47.422;9.656;2024-03-29T06:35:34;14.60;99.90
4366;DHT22;2196;47.422;9.656;2024-03-29T06:38:01;14.80;99.90
4366;DHT22;2196;47.422;9.656;2024-03-29T06:40:30;14.80;99.90
4366;DHT22;2196;47.422;9.656;2024-03-29T06:42:57;15.10;99.90
4366;DHT22;2196;47.422;9.656;2024-03-29T06:45:25;15.20;99.90
4366;DHT22;2196;47.422;9.656;2024-03-29T06:47:54;15.60;99.90
4366;DHT22;2196;47.422;9.656;2024-03-29T06:50:21;16.00;99.90
4366;DHT22;2196;47.422;9.656;2024-03-29T06:52:48;16.60;99.90
4366;DHT22;2196;47.422;9.656;2024-03-29T06:55:16;17.20;99.90
4366;DHT22;2196;47.422;9.656;2024-03-29T06:57:44;17.70;99.90
4366;DHT22;2196;47.422;9.656;2024-03-29T07:00:12;18.00;99.90
4366;DHT22;2196;47.422;9.656;2024-03-29T07:02:39;18.20;99.90
4366;DHT22;2196;47.422;9.656;2024-03-29T07:05:07;18.10;99.90
4366;DHT22;2196;47.422;9.656;2024-03-29T07:07:36;18.00;99.90
4366;DHT22;2196;47.422;9.656;2024-03-29T07:19:56;17.70;99.90
4366;DHT22;2196;47.422;9.656;2024-03-29T07:22:23;17.60;99.90
4366;DHT22;2196;47.422;9.656;2024-03-29T07:24:50;17.50;99.90
4366;DHT22;2196;47.422;9.656;2024-03-29T07:27:17;17.40;99.90
4366;DHT22;2196;47.422;9.656;2024-03-29T07:29:46;16.90;99.90
4366;DHT22;2196;47.422;9.656;2024-03-29T07:32:15;16.70;99.90
4366;DHT22;2196;47.422;9.656;2024-03-29T07:34:42;16.90;99.90
4366;DHT22;2196;47.422;9.656;2024-03-29T07:37:08;17.20;99.90
4366;DHT22;2196;47.422;9.656;2024-03-29T07:39:40;17.40;99.90
4366;DHT22;2196;47.422;9.656;2024-03-29T07:42:08;17.30;99.90
4366;DHT22;2196;47.422;9.656;2024-03-29T07:44:35;17.60;99.90
4366;DHT22;2196;47.422;9.656;2024-03-29T07:47:02;17.90;99.90
4366;DHT22;2196;47.422;9.656;2024-03-29T07:49:30;18.00;99.90
4366;DHT22;2196;47.422;9.656;2024-03-29T07:51:57;18.00;99.90
4366;DHT22;2196;47.422;9.656;2024-03-29T07:54:25;18.20;99.90
4366;DHT22;2196;47.422;9.656;2024-03-29T07:56:52;18.20;99.90
4366;DHT22;2196;47.422;9.656;2024-03-29T07:59:19;18.10;99.90
4366;DHT22;2196;47.422;9.656;2024-03-29T08:01:49;18.20;99.90
4366;DHT22;2196;47.422;9.656;2024-03-29T08:04:18;18.10;99.90
4366;DHT22;2196;47.422;9.656;2024-03-29T08:06:46;18.10;99.90
4366;DHT22;2196;47.422;9.656;2024-03-29T08:09:13;18.00;99.90
4366;DHT22;2196;47.422;9.656;2024-03-29T08:11:40;18.00;99.90
4366;DHT22;2196;47.422;9.656;2024-03-29T08:14:08;18.00;99.90
4366;DHT22;2196;47.422;9.656;2024-03-29T08:16:35;17.80;99.90
4366;DHT22;2196;47.422;9.656;2024-03-29T08:19:02;17.60;99.90
4366;DHT22;2196;47.422;9.656;2024-03-29T08:21:29;17.70;99.90
4366;DHT22;2196;47.422;9.656;2024-03-29T08:23:57;17.60;99.90
4366;DHT22;2196;47.422;9.656;2024-03-29T08:26:26;17.50;99.90
4366;DHT22;2196;47.422;9.656;2024-03-29T08:28:54;17.50;99.90
4366;DHT22;2196;47.422;9.656;2024-03-29T08:31:21;17.60;99.90
4366;DHT22;2196;47.422;9.656;2024-03-29T08:33:48;17.80;99.90
4366;DHT22;2196;47.422;9.656;2024-03-29T08:36:15;18.00;99.90
4366;DHT22;2196;47.422;9.656;2024-03-29T08:38:42;18.10;99.90
4366;DHT22;2196;47.422;9.656;2024-03-29T08:41:12;18.10;99.90
4366;DHT22;2196;47.422;9.656;2024-03-29T08:43:40;18.20;99.90
4366;DHT22;2196;47.422;9.656;2024-03-29T08:46:07;18.30;99.90
4366;DHT22;2196;47.422;9.656;2024-03-29T08:48:34;18.40;99.90
4366;DHT22;2196;47.422;9.656;2024-03-29T08:51:03;18.80;99.90
4366;DHT22;2196;47.422;9.656;2024-03-29T08:53:30;19.00;99.90
4366;DHT22;2196;47.422;9.656;2024-03-29T08:55:57;18.90;99.90
4366;DHT22;2196;47.422;9.656;2024-03-29T08:58:25;19.00;99.90
4366;DHT22;2196;47.422;9.656;2024-03-29T09:00:53;19.00;99.90
4366;DHT22;2196;47.422;9.656;2024-03-29T09:03:21;18.90;99.90
4366;DHT22;2196;47.422;9.656;2024-03-29T09:05:48;18.70;99.90
4366;DHT22;2196;47.422;9.656;2024-03-29T09:08:15;18.60;99.90
4366;DHT22;2196;47.422;9.656;2024-03-29T09:10:42;18.60;99.90
4366;DHT22;2196;47.422;9.656;2024-03-29T09:13:09;18.60;99.90
4366;DHT22;2196;47.422;9.656;2024-03-29T09:15:38;18.50;99.90
4366;DHT22;2196;47.422;9.656;2024-03-29T09:18:05;18.50;99.90
4366;DHT22;2196;47.422;9.656;2024-03-29T09:20:42;18.50;99.90
4366;DHT22;2196;47.422;9.656;2024-03-29T09:23:09;18.70;99.90
4366;DHT22;2196;47.422;9.656;2024-03-29T09:25:40;19.00;99.90
4366;DHT22;2196;47.422;9.656;2024-03-29T09:28:07;18.90;99.90
4366;DHT22;2196;47.422;9.656;2024-03-29T09:30:37;19.00;99.90
4366;DHT22;2196;47.422;9.656;2024-03-29T09:33:04;19.00;99.90
4366;DHT22;2196;47.422;9.656;2024-03-29T09:35:32;19.10;99.90
4366;DHT22;2196;47.422;9.656;2024-03-29T09:37:59;19.10;99.90
4366;DHT22;2196;47.422;9.656;2024-03-29T09:40:27;19.10;99.90
4366;DHT22;2196;47.422;9.656;2024-03-29T09:42:56;19.20;99.90
4366;DHT22;2196;47.422;9.656;2024-03-29T09:45:28;19.30;99.90
4366;DHT22;2196;47.422;9.656;2024-03-29T09:48:01;19.50;99.90
4366;DHT22;2196;47.422;9.656;2024-03-29T09:50:28;19.50;99.90
4366;DHT22;2196;47.422;9.656;2024-03-29T09:52:58;19.60;99.90
4366;DHT22;2196;47.422;9.656;2024-03-29T09:55:25;19.50;99.90
4366;DHT22;2196;47.422;9.656;2024-03-29T09:57:53;19.30;99.90
4366;DHT22;2196;47.422;9.656;2024-03-29T10:00:20;19.20;99.90
4366;DHT22;2196;47.422;9.656;2024-03-29T10:02:53;19.10;99.90
4366;DHT22;2196;47.422;9.656;2024-03-29T10:05:24;19.00;99.90
4366;DHT22;2196;47.422;9.656;2024-03-29T10:07:54;19.00;99.90
4366;DHT22;2196;47.422;9.656;2024-03-29T10:10:22;19.10;99.90
4366;DHT22;2196;47.422;9.656;2024-03-29T10:12:49;19.20;99.90
4366;DHT22;2196;47.422;9.656;2024-03-29T10:15:20;19.30;99.90
4366;DHT22;2196;47.422;9.656;2024-03-29T10:17:49;19.30;99.90
4366;DHT22;2196;47.422;9.656;2024-03-29T10:20:22;19.30;99.90
4366;DHT22;2196;47.422;9.656;2024-03-29T10:22:55;19.40;99.90
4366;DHT22;2196;47.422;9.656;2024-03-29T10:25:31;19.40;99.90
4366;DHT22;2196;47.422;9.656;2024-03-29T10:27:58;19.50;99.90
4366;DHT22;2196;47.422;9.656;2024-03-29T10:30:27;19.60;99.90
4366;DHT22;2196;47.422;9.656;2024-03-29T10:32:55;19.80;99.90
4366;DHT22;2196;47.422;9.656;2024-03-29T10:35:25;20.00;99.90
4366;DHT22;2196;47.422;9.656;2024-03-29T10:37:52;19.90;99.90
4366;DHT22;2196;47.422;9.656;2024-03-29T10:40:23;19.80;99.90
4366;DHT22;2196;47.422;9.656;2024-03-29T10:42:52;19.70;99.90
4366;DHT22;2196;47.422;9.656;2024-03-29T10:45:20;19.70;99.90
4366;DHT22;2196;47.422;9.656;2024-03-29T10:55:21;19.80;99.90
4366;DHT22;2196;47.422;9.656;2024-03-29T10:57:49;19.90;99.90
4366;DHT22;2196;47.422;9.656;2024-03-29T11:00:22;19.70;99.90
4366;DHT22;2196;47.422;9.656;2024-03-29T11:02:54;19.80;99.90
4366;DHT22;2196;47.422;9.656;2024-03-29T11:05:24;19.60;99.90
4366;DHT22;2196;47.422;9.656;2024-03-29T11:07:54;19.50;99.90
4366;DHT22;2196;47.422;9.656;2024-03-29T11:10:25;19.50;99.90
4366;DHT22;2196;47.422;9.656;2024-03-29T11:13:01;19.50;99.90
4366;DHT22;2196;47.422;9.656;2024-03-29T11:15:30;19.40;99.90
4366;DHT22;2196;47.422;9.656;2024-03-29T11:17:58;19.50;99.90
4366;DHT22;2196;47.422;9.656;2024-03-29T11:20:26;19.50;99.90
4366;DHT22;2196;47.422;9.656;2024-03-29T11:23:06;20.00;99.90
4366;DHT22;2196;47.422;9.656;2024-03-29T11:30:41;21.30;99.90
4366;DHT22;2196;47.422;9.656;2024-03-29T11:38:19;21.70;99.90
4366;DHT22;2196;47.422;9.656;2024-03-29T11:40:54;21.90;99.90
4366;DHT22;2196;47.422;9.656;2024-03-29T11:43:21;21.90;99.90
4366;DHT22;2196;47.422;9.656;2024-03-29T11:45:50;22.10;99.90
4366;DHT22;2196;47.422;9.656;2024-03-29T11:48:23;22.20;99.90
4366;DHT22;2196;47.422;9.656;2024-03-29T11:50:52;21.90;99.90
4366;DHT22;2196;47.422;9.656;2024-03-29T11:53:21;21.80;99.50
4366;DHT22;2196;47.422;9.656;2024-03-29T11:55:48;21.30;99.90
4366;DHT22;2196;47.422;9.656;2024-03-29T11:58:20;21.00;99.50
4366;DHT22;2196;47.422;9.656;2024-03-29T12:00:46;20.80;99.90
4366;DHT22;2196;47.422;9.656;2024-03-29T12:03:14;20.70;99.50
4366;DHT22;2196;47.422;9.656;2024-03-29T12:05:42;20.70;99.90
4366;DHT22;2196;47.422;9.656;2024-03-29T12:08:09;20.70;99.30
4366;DHT22;2196;47.422;9.656;2024-03-29T12:10:38;20.60;99.10
4366;DHT22;2196;47.422;9.656;2024-03-29T12:13:05;20.70;99.60
4366;DHT22;2196;47.422;9.656;2024-03-29T12:15:33;21.00;99.90
4366;DHT22;2196;47.422;9.656;2024-03-29T12:18:01;21.30;98.90
4366;DHT22;2196;47.422;9.656;2024-03-29T12:20:30;21.50;99.10
4366;DHT22;2196;47.422;9.656;2024-03-29T12:22:59;21.70;99.90
4366;DHT22;2196;47.422;9.656;2024-03-29T12:25:29;21.90;99.60
4366;DHT22;2196;47.422;9.656;2024-03-29T12:27:58;21.90;99.20
4366;DHT22;2196;47.422;9.656;2024-03-29T12:30:26;21.90;99.90
4366;DHT22;2196;47.422;9.656;2024-03-29T12:33:01;21.90;99.30
4366;DHT22;2196;47.422;9.656;2024-03-29T12:35:29;22.00;99.00
4366;DHT22;2196;47.422;9.656;2024-03-29T12:38:00;21.80;99.10
4366;DHT22;2196;47.422;9.656;2024-03-29T12:40:29;21.50;98.60
4366;DHT22;2196;47.422;9.656;2024-03-29T12:43:03;21.30;98.60
4366;DHT22;2196;47.422;9.656;2024-03-29T12:45:31;21.20;99.20
4366;DHT22;2196;47.422;9.656;2024-03-29T12:47:58;21.20;99.10
4366;DHT22;2196;47.422;9.656;2024-03-29T12:50:26;21.40;98.60
4366;DHT22;2196;47.422;9.656;2024-03-29T12:52:54;21.80;99.10
4366;DHT22;2196;47.422;9.656;2024-03-29T12:55:23;22.00;98.70
4366;DHT22;2196;47.422;9.656;2024-03-29T12:57:52;22.10;97.50
4366;DHT22;2196;47.422;9.656;2024-03-29T13:00:21;22.00;98.20
4366;DHT22;2196;47.422;9.656;2024-03-29T13:02:48;21.80;98.40
4366;DHT22;2196;47.422;9.656;2024-03-29T13:05:15;21.60;99.70
4366;DHT22;2196;47.422;9.656;2024-03-29T13:07:42;21.30;99.00
4366;DHT22;2196;47.422;9.656;2024-03-29T13:10:10;21.30;99.40
4366;DHT22;2196;47.422;9.656;2024-03-29T13:12:41;21.40;99.90
4366;DHT22;2196;47.422;9.656;2024-03-29T13:15:17;21.40;99.60
4366;DHT22;2196;47.422;9.656;2024-03-29T13:17:47;21.30;99.40
4366;DHT22;2196;47.422;9.656;2024-03-29T13:20:22;21.10;99.80
4366;DHT22;2196;47.422;9.656;2024-03-29T13:22:50;21.10;99.50
4366;DHT22;2196;47.422;9.656;2024-03-29T13:25:23;21.10;98.50
4366;DHT22;2196;47.422;9.656;2024-03-29T13:27:51;21.10;99.90
4366;DHT22;2196;47.422;9.656;2024-03-29T13:30:24;21.10;99.90
4366;DHT22;2196;47.422;9.656;2024-03-29T13:32:53;21.00;99.30
4366;DHT22;2196;47.422;9.656;2024-03-29T13:35:20;20.80;99.40
4366;DHT22;2196;47.422;9.656;2024-03-29T13:37:49;20.90;99.20
4366;DHT22;2196;47.422;9.656;2024-03-29T13:40:19;21.00;98.70
4366;DHT22;2196;47.422;9.656;2024-03-29T13:42:46;21.00;99.00
4366;DHT22;2196;47.422;9.656;2024-03-29T13:45:14;20.90;97.80
4366;DHT22;2196;47.422;9.656;2024-03-29T13:47:42;20.90;98.00
4366;DHT22;2196;47.422;9.656;2024-03-29T13:50:11;20.70;98.70
4366;DHT22;2196;47.422;9.656;2024-03-29T13:52:41;20.80;98.50
4366;DHT22;2196;47.422;9.656;2024-03-29T13:55:08;20.70;99.30
4366;DHT22;2196;47.422;9.656;2024-03-29T13:57:36;20.70;98.30
4366;DHT22;2196;47.422;9.656;2024-03-29T14:00:03;20.80;97.80
4366;DHT22;2196;47.422;9.656;2024-03-29T14:02:31;20.70;98.10
4366;DHT22;2196;47.422;9.656;2024-03-29T14:04:58;20.80;98.50
4366;DHT22;2196;47.422;9.656;2024-03-29T14:07:27;20.70;98.60
4366;DHT22;2196;47.422;9.656;2024-03-29T14:09:54;20.60;99.00
4366;DHT22;2196;47.422;9.656;2024-03-29T14:12:21;20.60;98.70
4366;DHT22;2196;47.422;9.656;2024-03-29T14:14:51;20.60;99.90
4366;DHT22;2196;47.422;9.656;2024-03-29T14:17:19;20.50;99.90
4366;DHT22;2196;47.422;9.656;2024-03-29T14:19:47;20.40;99.90
4366;DHT22;2196;47.422;9.656;2024-03-29T14:22:15;20.40;99.90
4366;DHT22;2196;47.422;9.656;2024-03-29T14:24:46;20.40;99.90
4366;DHT22;2196;47.422;9.656;2024-03-29T14:27:13;20.40;99.90
4366;DHT22;2196;47.422;9.656;2024-03-29T14:29:40;20.30;99.90
4366;DHT22;2196;47.422;9.656;2024-03-29T14:32:10;20.30;99.90
4366;DHT22;2196;47.422;9.656;2024-03-29T14:34:37;20.20;99.90
4366;DHT22;2196;47.422;9.656;2024-03-29T14:37:10;20.10;99.90
4366;DHT22;2196;47.422;9.656;2024-03-29T14:39:41;20.10;99.90
4366;DHT22;2196;47.422;9.656;2024-03-29T14:42:11;20.10;99.90
4366;DHT22;2196;47.422;9.656;2024-03-29T14:44:40;20.00;99.90
4366;DHT22;2196;47.422;9.656;2024-03-29T14:47:07;19.90;99.90
4366;DHT22;2196;47.422;9.656;2024-03-29T14:49:35;20.00;98.70
4366;DHT22;2196;47.422;9.656;2024-03-29T14:52:02;20.00;99.00
4366;DHT22;2196;47.422;9.656;2024-03-29T14:54:31;20.00;98.50
4366;DHT22;2196;47.422;9.656;2024-03-29T14:56:58;20.00;98.50
4366;DHT22;2196;47.422;9.656;2024-03-29T14:59:26;20.00;99.20
4366;DHT22;2196;47.422;9.656;2024-03-29T15:01:56;20.10;98.10
4366;DHT22;2196;47.422;9.656;2024-03-29T15:04:23;20.10;98.60
4366;DHT22;2196;47.422;9.656;2024-03-29T15:09:17;20.00;98.70
4366;DHT22;2196;47.422;9.656;2024-03-29T15:11:44;20.00;98.90
4366;DHT22;2196;47.422;9.656;2024-03-29T15:14:12;19.90;97.70
4366;DHT22;2196;47.422;9.656;2024-03-29T15:16:40;19.90;98.50
4366;DHT22;2196;47.422;9.656;2024-03-29T15:19:07;19.90;98.40
4366;DHT22;2196;47.422;9.656;2024-03-29T15:21:34;19.80;98.90
4366;DHT22;2196;47.422;9.656;2024-03-29T15:24:03;19.70;99.90
4366;DHT22;2196;47.422;9.656;2024-03-29T15:26:30;19.70;99.90
4366;DHT22;2196;47.422;9.656;2024-03-29T15:28:59;19.70;99.80
4366;DHT22;2196;47.422;9.656;2024-03-29T15:31:35;19.70;99.90
4366;DHT22;2196;47.422;9.656;2024-03-29T15:34:04;19.60;99.90
4366;DHT22;2196;47.422;9.656;2024-03-29T15:36:32;19.50;99.90
4366;DHT22;2196;47.422;9.656;2024-03-29T15:38:59;19.50;99.90
4366;DHT22;2196;47.422;9.656;2024-03-29T15:41:31;19.50;99.90
4366;DHT22;2196;47.422;9.656;2024-03-29T15:43:58;19.60;99.90
4366;DHT22;2196;47.422;9.656;2024-03-29T15:46:26;19.70;99.90
4366;DHT22;2196;47.422;9.656;2024-03-29T15:48:54;19.80;99.90
4366;DHT22;2196;47.422;9.656;2024-03-29T15:51:23;19.80;99.90
4366;DHT22;2196;47.422;9.656;2024-03-29T15:53:51;19.90;99.70
4366;DHT22;2196;47.422;9.656;2024-03-29T15:56:20;20.00;99.60
4366;DHT22;2196;47.422;9.656;2024-03-29T15:58:47;20.00;99.90
4366;DHT22;2196;47.422;9.656;2024-03-29T16:01:16;20.00;99.90
4366;DHT22;2196;47.422;9.656;2024-03-29T16:03:43;19.90;99.90
4366;DHT22;2196;47.422;9.656;2024-03-29T16:06:10;19.90;99.90
4366;DHT22;2196;47.422;9.656;2024-03-29T16:08:38;20.00;99.90
4366;DHT22;2196;47.422;9.656;2024-03-29T16:11:06;19.90;99.90
4366;DHT22;2196;47.422;9.656;2024-03-29T16:13:33;19.70;99.90
4366;DHT22;2196;47.422;9.656;2024-03-29T16:16:02;19.60;99.90
4366;DHT22;2196;47.422;9.656;2024-03-29T16:18:30;19.50;99.60
4366;DHT22;2196;47.422;9.656;2024-03-29T16:20:58;19.50;99.90
4366;DHT22;2196;47.422;9.656;2024-03-29T16:23:25;19.50;99.70
4366;DHT22;2196;47.422;9.656;2024-03-29T16:25:53;19.50;99.70
4366;DHT22;2196;47.422;9.656;2024-03-29T16:28:21;19.50;99.00
4366;DHT22;2196;47.422;9.656;2024-03-29T16:30:48;19.60;99.90
4366;DHT22;2196;47.422;9.656;2024-03-29T16:33:15;19.60;99.70
4366;DHT22;2196;47.422;9.656;2024-03-29T16:35:42;19.60;99.90
4366;DHT22;2196;47.422;9.656;2024-03-29T16:38:10;19.50;99.80
4366;DHT22;2196;47.422;9.656;2024-03-29T16:40:38;19.50;99.90